sensor_id;sensor_type;location;lat;lon;timestamp;P1;durP1;ratioP1;P2;durP2;ratioP2
20000;SDS011;10161;41.188;-8.642;2022-12-07T00:00:35;13.80;;;12.30;;
20000;SDS011;10161;41.188;-8.642;2022-12-07T00:03:01;14.67;;;13.07;;
20000;SDS011;10161;41.188;-8.642;2022-12-07T00:05:29;14.10;;;12.70;;
20000;SDS011;10161;41.188;-8.642;2022-12-07T00:07:56;15.17;;;12.70;;
20000;SDS011;10161;41.188;-8.642;2022-12-07T00:10:24;18.07;;;14.40;;
20000;SDS011;10161;41.188;-8.642;2022-12-07T00:12:51;16.80;;;14.40;;
20000;SDS011;10161;41.188;-8.642;2022-12-07T00:15:19;18.53;;;15.90;;
20000;SDS011;10161;41.188;-8.642;2022-12-07T00:17:46;17.67;;;14.37;;
20000;SDS011;10161;41.188;-8.642;2022-12-07T00:20:13;15.37;;;13.87;;
20000;SDS011;10161;41.188;-8.642;2022-12-07T00:22:40;15.67;;;13.90;;
20000;SDS011;10161;41.188;-8.642;2022-12-07T00:25:07;15.53;;;13.50;;
20000;SDS011;10161;41.188;-8.642;2022-12-07T00:27:36;16.30;;;14.70;;
20000;SDS011;10161;41.188;-8.642;2022-12-07T00:30:04;18.10;;;14.70;;
20000;SDS011;10161;41.188;-8.642;2022-12-07T00:32:32;15.50;;;14.00;;
20000;SDS011;10161;41.188;-8.642;2022-12-07T00:34:59;15.77;;;13.80;;
20000;SDS011;10161;41.188;-8.642;2022-12-07T00:37:26;14.20;;;12.80;;
20000;SDS011;10161;41.188;-8.642;2022-12-07T00:39:53;14.07;;;12.57;;
20000;SDS011;10161;41.188;-8.642;2022-12-07T00:42:20;15.40;;;13.43;;
20000;SDS011;10161;41.188;-8.642;2022-12-07T00:44:48;17.67;;;13.80;;
20000;SDS011;10161;41.188;-8.642;2022-12-07T00:47:15;14.50;;;13.00;;
20000;SDS011;10161;41.188;-8.642;2022-12-07T00:49:43;15.23;;;13.53;;
20000;SDS011;10161;41.188;-8.642;2022-12-07T00:52:10;16.37;;;14.00;;
20000;SDS011;10161;41.188;-8.642;2022-12-07T00:54:39;17.83;;;13.93;;
20000;SDS011;10161;41.188;-8.642;2022-12-07T00:57:06;15.90;;;14.30;;
20000;SDS011;10161;41.188;-8.642;2022-12-07T00:59:33;17.60;;;15.40;;
20000;SDS011;10161;41.188;-8.642;2022-12-07T01:02:01;18.40;;;14.53;;
20000;SDS011;10161;41.188;-8.642;2022-12-07T01:04:28;17.10;;;14.10;;
20000;SDS011;10161;41.188;-8.642;2022-12-07T01:06:55;16.33;;;14.30;;
20000;SDS011;10161;41.188;-8.642;2022-12-07T01:09:22;17.90;;;14.20;;
20000;SDS011;10161;41.188;-8.642;2022-12-07T01:11:49;15.73;;;13.10;;
20000;SDS011;10161;41.188;-8.642;2022-12-07T01:14:16;14.67;;;13.07;;
20000;SDS011;10161;41.188;-8.642;2022-12-07T01:16:43;16.03;;;14.33;;
20000;SDS011;10161;41.188;-8.642;2022-12-07T01:19:13;16.13;;;14.03;;
20000;SDS011;10161;41.188;-8.642;2022-12-07T01:21:40;16.57;;;13.97;;
20000;SDS011;10161;41.188;-8.642;2022-12-07T01:24:08;14.90;;;13.33;;
20000;SDS011;10161;41.188;-8.642;2022-12-07T01:26:36;16.07;;;13.90;;
20000;SDS011;10161;41.188;-8.642;2022-12-07T01:29:03;15.27;;;13.30;;
20000;SDS011;10161;41.188;-8.642;2022-12-07T01:31:30;15.57;;;13.87;;
20000;SDS011;10161;41.188;-8.642;2022-12-07T01:33:58;14.37;;;12.87;;
20000;SDS011;10161;41.188;-8.642;2022-12-07T01:36:27;15.20;;;13.50;;
20000;SDS011;10161;41.188;-8.642;2022-12-07T01:38:56;15.77;;;13.33;;
20000;SDS011;10161;41.188;-8.642;2022-12-07T01:41:24;14.53;;;12.87;;
20000;SDS011;10161;41.188;-8.642;2022-12-07T01:44:09;15.63;;;13.47;;
20000;SDS011;10161;41.188;-8.642;2022-12-07T01:46:44;14.30;;;12.77;;
20000;SDS011;10161;41.188;-8.642;2022-12-07T01:49:14;14.60;;;13.03;;
20000;SDS011;10161;41.188;-8.642;2022-12-07T01:51:45;16.40;;;13.00;;
20000;SDS011;10161;41.188;-8.642;2022-12-07T01:54:13;13.00;;;11.60;;
20000;SDS011;10161;41.188;-8.642;2022-12-07T01:56:41;13.50;;;12.10;;
20000;SDS011;10161;41.188;-8.642;2022-12-07T01:59:10;14.60;;;13.10;;
20000;SDS011;10161;41.188;-8.642;2022-12-07T02:01:37;15.00;;;12.63;;
20000;SDS011;10161;41.188;-8.642;2022-12-07T02:04:05;15.40;;;13.17;;
20000;SDS011;10161;41.188;-8.642;2022-12-07T02:06:32;14.17;;;12.67;;
20000;SDS011;10161;41.188;-8.642;2022-12-07T02:09:01;13.97;;;12.50;;
20000;SDS011;10161;41.188;-8.642;2022-12-07T02:11:28;13.20;;;11.80;;
20000;SDS011;10161;41.188;-8.642;2022-12-07T02:13:55;13.53;;;12.13;;
20000;SDS011;10161;41.188;-8.642;2022-12-07T02:16:28;13.97;;;12.57;;
20000;SDS011;10161;41.188;-8.642;2022-12-07T02:19:01;14.60;;;12.97;;
20000;SDS011;10161;41.188;-8.642;2022-12-07T02:21:42;16.97;;;12.67;;
20000;SDS011;10161;41.188;-8.642;2022-12-07T02:24:22;14.73;;;12.60;;
20000;SDS011;10161;41.188;-8.642;2022-12-07T02:27:03;13.50;;;12.10;;
20000;SDS011;10161;41.188;-8.642;2022-12-07T02:29:38;13.97;;;12.50;;
20000;SDS011;10161;41.188;-8.642;2022-12-07T02:32:07;13.73;;;12.30;;
20000;SDS011;10161;41.188;-8.642;2022-12-07T02:34:39;14.70;;;13.20;;
20000;SDS011;10161;41.188;-8.642;2022-12-07T02:37:11;13.97;;;12.57;;
20000;SDS011;10161;41.188;-8.642;2022-12-07T02:39:44;14.43;;;12.87;;
20000;SDS011;10161;41.188;-8.642;2022-12-07T02:42:15;14.10;;;12.70;;
20000;SDS011;10161;41.188;-8.642;2022-12-07T02:44:45;15.70;;;13.43;;
20000;SDS011;10161;41.188;-8.642;2022-12-07T02:47:13;14.33;;;12.73;;
20000;SDS011;10161;41.188;-8.642;2022-12-07T02:49:42;14.97;;;13.03;;
20000;SDS011;10161;41.188;-8.642;2022-12-07T02:52:09;13.70;;;12.30;;
20000;SDS011;10161;41.188;-8.642;2022-12-07T02:54:36;15.50;;;13.90;;
20000;SDS011;10161;41.188;-8.642;2022-12-07T02:57:05;16.37;;;14.60;;
20000;SDS011;10161;41.188;-8.642;2022-12-07T02:59:41;15.03;;;13.33;;
20000;SDS011;10161;41.188;-8.642;2022-12-07T03:02:17;15.20;;;13.60;;
20000;SDS011;10161;41.188;-8.642;2022-12-07T03:04:49;15.73;;;12.90;;
20000;SDS011;10161;41.188;-8.642;2022-12-07T03:07:21;16.13;;;13.67;;
20000;SDS011;10161;41.188;-8.642;2022-12-07T03:09:57;15.73;;;13.97;;
20000;SDS011;10161;41.188;-8.642;2022-12-07T03:12:28;15.77;;;13.37;;
20000;SDS011;10161;41.188;-8.642;2022-12-07T03:15:02;14.77;;;12.63;;
20000;SDS011;10161;41.188;-8.642;2022-12-07T03:17:32;15.43;;;13.73;;
20000;SDS011;10161;41.188;-8.642;2022-12-07T03:20:02;16.23;;;14.53;;
20000;SDS011;10161;41.188;-8.642;2022-12-07T03:22:31;17.03;;;14.30;;
20000;SDS011;10161;41.188;-8.642;2022-12-07T03:25:01;16.70;;;14.87;;
20000;SDS011;10161;41.188;-8.642;2022-12-07T03:27:31;15.77;;;14.10;;
20000;SDS011;10161;41.188;-8.642;2022-12-07T03:30:03;16.20;;;14.50;;
20000;SDS011;10161;41.188;-8.642;2022-12-07T03:32:33;17.43;;;15.53;;
20000;SDS011;10161;41.188;-8.642;2022-12-07T03:35:03;18.37;;;14.90;;
20000;SDS011;10161;41.188;-8.642;2022-12-07T03:37:33;15.80;;;14.00;;
20000;SDS011;10161;41.188;-8.642;2022-12-07T03:40:03;17.03;;;15.27;;
20000;SDS011;10161;41.188;-8.642;2022-12-07T03:42:33;18.07;;;16.10;;
20000;SDS011;10161;41.188;-8.642;2022-12-07T03:45:02;17.27;;;14.80;;
20000;SDS011;10161;41.188;-8.642;2022-12-07T03:47:31;15.63;;;13.30;;
20000;SDS011;10161;41.188;-8.642;2022-12-07T03:50:02;16.63;;;14.57;;
20000;SDS011;10161;41.188;-8.642;2022-12-07T03:52:33;15.37;;;13.63;;
20000;SDS011;10161;41.188;-8.642;2022-12-07T03:55:05;15.90;;;14.17;;
20000;SDS011;10161;41.188;-8.642;2022-12-07T03:57:35;14.30;;;12.23;;
20000;SDS011;10161;41.188;-8.642;2022-12-07T04:00:05;14.60;;;13.10;;
20000;SDS011;10161;41.188;-8.642;2022-12-07T04:02:33;13.87;;;12.47;;
20000;SDS011;10161;41.188;-8.642;2022-12-07T04:05:00;15.70;;;13.47;;
20000;SDS011;10161;41.188;-8.642;2022-12-07T04:07:28;15.53;;;13.33;;
20000;SDS011;10161;41.188;-8.642;2022-12-07T04:09:55;14.77;;;12.97;;
20000;SDS011;10161;41.188;-8.642;2022-12-07T04:12:22;13.13;;;11.83;;
20000;SDS011;10161;41.188;-8.642;2022-12-07T04:14:50;14.27;;;12.70;;
20000;SDS011;10161;41.188;-8.642;2022-12-07T04:17:18;14.73;;;12.63;;
20000;SDS011;10161;41.188;-8.642;2022-12-07T04:19:45;13.40;;;12.00;;
20000;SDS011;10161;41.188;-8.642;2022-12-07T04:22:12;15.60;;;12.90;;
20000;SDS011;10161;41.188;-8.642;2022-12-07T04:24:39;13.37;;;11.97;;
20000;SDS011;10161;41.188;-8.642;2022-12-07T04:27:06;14.80;;;13.13;;
20000;SDS011;10161;41.188;-8.642;2022-12-07T04:29:33;14.13;;;12.23;;
20000;SDS011;10161;41.188;-8.642;2022-12-07T04:32:00;14.33;;;12.83;;
20000;SDS011;10161;41.188;-8.642;2022-12-07T04:34:28;14.77;;;13.17;;
20000;SDS011;10161;41.188;-8.642;2022-12-07T04:36:55;14.23;;;12.70;;
20000;SDS011;10161;41.188;-8.642;2022-12-07T04:39:23;14.63;;;13.03;;
20000;SDS011;10161;41.188;-8.642;2022-12-07T04:41:51;14.90;;;12.93;;
20000;SDS011;10161;41.188;-8.642;2022-12-07T04:44:18;13.50;;;12.00;;
20000;SDS011;10161;41.188;-8.642;2022-12-07T04:46:45;15.03;;;12.80;;
20000;SDS011;10161;41.188;-8.642;2022-12-07T04:49:13;13.87;;;12.47;;
20000;SDS011;10161;41.188;-8.642;2022-12-07T04:51:43;15.00;;;13.40;;
20000;SDS011;10161;41.188;-8.642;2022-12-07T04:54:10;12.83;;;11.60;;
20000;SDS011;10161;41.188;-8.642;2022-12-07T04:56:39;13.10;;;11.90;;
20000;SDS011;10161;41.188;-8.642;2022-12-07T04:59:07;12.77;;;11.47;;
20000;SDS011;10161;41.188;-8.642;2022-12-07T05:01:35;15.03;;;13.00;;
20000;SDS011;10161;41.188;-8.642;2022-12-07T05:04:02;14.03;;;12.17;;
20000;SDS011;10161;41.188;-8.642;2022-12-07T05:06:29;12.03;;;10.83;;
20000;SDS011;10161;41.188;-8.642;2022-12-07T05:08:57;12.47;;;11.27;;
20000;SDS011;10161;41.188;-8.642;2022-12-07T05:11:24;14.33;;;12.90;;
20000;SDS011;10161;41.188;-8.642;2022-12-07T05:14:07;14.13;;;12.47;;
20000;SDS011;10161;41.188;-8.642;2022-12-07T05:16:37;13.67;;;12.27;;
20000;SDS011;10161;41.188;-8.642;2022-12-07T05:19:04;14.53;;;12.50;;
20000;SDS011;10161;41.188;-8.642;2022-12-07T05:21:31;14.73;;;12.87;;
20000;SDS011;10161;41.188;-8.642;2022-12-07T05:23:59;13.13;;;11.70;;
20000;SDS011;10161;41.188;-8.642;2022-12-07T05:26:27;13.80;;;12.20;;
20000;SDS011;10161;41.188;-8.642;2022-12-07T05:28:54;14.23;;;12.77;;
20000;SDS011;10161;41.188;-8.642;2022-12-07T05:31:22;14.20;;;12.80;;
20000;SDS011;10161;41.188;-8.642;2022-12-07T05:33:50;14.27;;;12.30;;
20000;SDS011;10161;41.188;-8.642;2022-12-07T05:36:17;13.67;;;11.90;;
20000;SDS011;10161;41.188;-8.642;2022-12-07T05:38:44;13.97;;;12.47;;
20000;SDS011;10161;41.188;-8.642;2022-12-07T05:41:14;14.63;;;13.13;;
20000;SDS011;10161;41.188;-8.642;2022-12-07T05:43:59;13.50;;;12.20;;
20000;SDS011;10161;41.188;-8.642;2022-12-07T05:46:26;14.90;;;11.60;;
20000;SDS011;10161;41.188;-8.642;2022-12-07T05:48:53;13.03;;;11.73;;
20000;SDS011;10161;41.188;-8.642;2022-12-07T05:51:20;12.80;;;11.50;;
20000;SDS011;10161;41.188;-8.642;2022-12-07T05:53:47;13.67;;;11.77;;
20000;SDS011;10161;41.188;-8.642;2022-12-07T05:56:16;12.03;;;10.83;;
20000;SDS011;10161;41.188;-8.642;2022-12-07T05:58:42;12.23;;;11.13;;
20000;SDS011;10161;41.188;-8.642;2022-12-07T06:01:27;12.80;;;11.17;;
20000;SDS011;10161;41.188;-8.642;2022-12-07T06:03:54;12.60;;;11.30;;
20000;SDS011;10161;41.188;-8.642;2022-12-07T06:06:21;13.03;;;11.63;;
20000;SDS011;10161;41.188;-8.642;2022-12-07T06:08:48;11.60;;;10.40;;
20000;SDS011;10161;41.188;-8.642;2022-12-07T06:11:16;12.50;;;11.20;;
20000;SDS011;10161;41.188;-8.642;2022-12-07T06:14:00;12.43;;;10.97;;
20000;SDS011;10161;41.188;-8.642;2022-12-07T06:16:27;13.40;;;12.00;;
20000;SDS011;10161;41.188;-8.642;2022-12-07T06:18:54;13.63;;;11.30;;
20000;SDS011;10161;41.188;-8.642;2022-12-07T06:21:21;14.17;;;12.57;;
20000;SDS011;10161;41.188;-8.642;2022-12-07T06:23:49;13.17;;;11.87;;
20000;SDS011;10161;41.188;-8.642;2022-12-07T06:26:17;13.80;;;12.40;;
20000;SDS011;10161;41.188;-8.642;2022-12-07T06:28:44;13.20;;;11.90;;
20000;SDS011;10161;41.188;-8.642;2022-12-07T06:31:11;14.30;;;12.17;;
20000;SDS011;10161;41.188;-8.642;2022-12-07T06:33:38;14.37;;;12.90;;
20000;SDS011;10161;41.188;-8.642;2022-12-07T06:36:05;13.57;;;12.10;;
20000;SDS011;10161;41.188;-8.642;2022-12-07T06:38:33;13.67;;;12.27;;
20000;SDS011;10161;41.188;-8.642;2022-12-07T06:40:59;15.57;;;13.90;;
20000;SDS011;10161;41.188;-8.642;2022-12-07T06:43:28;14.20;;;12.57;;
20000;SDS011;10161;41.188;-8.642;2022-12-07T06:45:55;15.80;;;13.87;;
20000;SDS011;10161;41.188;-8.642;2022-12-07T06:48:22;15.30;;;13.70;;
20000;SDS011;10161;41.188;-8.642;2022-12-07T06:50:49;13.00;;;11.70;;
20000;SDS011;10161;41.188;-8.642;2022-12-07T06:53:16;13.33;;;12.00;;
20000;SDS011;10161;41.188;-8.642;2022-12-07T06:55:43;13.53;;;12.17;;
20000;SDS011;10161;41.188;-8.642;2022-12-07T06:58:10;13.80;;;11.87;;
20000;SDS011;10161;41.188;-8.642;2022-12-07T07:00:38;13.30;;;11.90;;
20000;SDS011;10161;41.188;-8.642;2022-12-07T07:03:05;14.37;;;12.87;;
20000;SDS011;10161;41.188;-8.642;2022-12-07T07:05:32;13.77;;;11.97;;
20000;SDS011;10161;41.188;-8.642;2022-12-07T07:07:59;13.93;;;12.60;;
20000;SDS011;10161;41.188;-8.642;2022-12-07T07:10:26;15.50;;;14.00;;
20000;SDS011;10161;41.188;-8.642;2022-12-07T07:12:53;15.93;;;13.90;;
20000;SDS011;10161;41.188;-8.642;2022-12-07T07:15:20;14.77;;;13.27;;
20000;SDS011;10161;41.188;-8.642;2022-12-07T07:17:49;14.77;;;13.20;;
20000;SDS011;10161;41.188;-8.642;2022-12-07T07:20:16;17.27;;;14.13;;
20000;SDS011;10161;41.188;-8.642;2022-12-07T07:22:43;14.73;;;13.10;;
20000;SDS011;10161;41.188;-8.642;2022-12-07T07:25:10;15.47;;;13.87;;
20000;SDS011;10161;41.188;-8.642;2022-12-07T07:27:38;16.90;;;14.43;;
20000;SDS011;10161;41.188;-8.642;2022-12-07T07:30:06;17.70;;;13.77;;
20000;SDS011;10161;41.188;-8.642;2022-12-07T07:32:34;15.03;;;13.07;;
20000;SDS011;10161;41.188;-8.642;2022-12-07T07:35:02;13.77;;;12.37;;
20000;SDS011;10161;41.188;-8.642;2022-12-07T07:37:30;14.03;;;12.37;;
20000;SDS011;10161;41.188;-8.642;2022-12-07T07:39:57;14.73;;;13.23;;
20000;SDS011;10161;41.188;-8.642;2022-12-07T07:42:24;15.13;;;13.63;;
20000;SDS011;10161;41.188;-8.642;2022-12-07T07:44:50;16.87;;;12.97;;
20000;SDS011;10161;41.188;-8.642;2022-12-07T07:47:17;12.57;;;11.37;;
20000;SDS011;10161;41.188;-8.642;2022-12-07T07:49:45;14.63;;;13.13;;
20000;SDS011;10161;41.188;-8.642;2022-12-07T07:52:13;16.70;;;14.33;;
20000;SDS011;10161;41.188;-8.642;2022-12-07T07:54:40;18.60;;;14.20;;
20000;SDS011;10161;41.188;-8.642;2022-12-07T07:57:07;15.73;;;13.53;;
20000;SDS011;10161;41.188;-8.642;2022-12-07T07:59:34;16.20;;;14.50;;
20000;SDS011;10161;41.188;-8.642;2022-12-07T08:02:01;15.83;;;14.20;;
20000;SDS011;10161;41.188;-8.642;2022-12-07T08:04:28;16.47;;;14.87;;
20000;SDS011;10161;41.188;-8.642;2022-12-07T08:06:55;16.60;;;14.73;;
20000;SDS011;10161;41.188;-8.642;2022-12-07T08:09:24;22.80;;;14.40;;
20000;SDS011;10161;41.188;-8.642;2022-12-07T08:11:52;13.70;;;12.30;;
20000;SDS011;10161;41.188;-8.642;2022-12-07T08:14:19;14.83;;;13.23;;
20000;SDS011;10161;41.188;-8.642;2022-12-07T08:16:47;15.13;;;13.50;;
20000;SDS011;10161;41.188;-8.642;2022-12-07T08:19:14;16.00;;;14.40;;
20000;SDS011;10161;41.188;-8.642;2022-12-07T08:21:40;15.03;;;13.50;;
20000;SDS011;10161;41.188;-8.642;2022-12-07T08:24:07;15.23;;;13.63;;
20000;SDS011;10161;41.188;-8.642;2022-12-07T08:26:36;15.47;;;13.17;;
20000;SDS011;10161;41.188;-8.642;2022-12-07T08:29:03;18.30;;;14.53;;
20000;SDS011;10161;41.188;-8.642;2022-12-07T08:31:30;15.00;;;13.20;;
20000;SDS011;10161;41.188;-8.642;2022-12-07T08:33:57;16.20;;;12.80;;
20000;SDS011;10161;41.188;-8.642;2022-12-07T08:36:24;14.30;;;12.80;;
20000;SDS011;10161;41.188;-8.642;2022-12-07T08:38:51;14.60;;;13.10;;
20000;SDS011;10161;41.188;-8.642;2022-12-07T08:41:18;16.17;;;14.30;;
20000;SDS011;10161;41.188;-8.642;2022-12-07T08:43:46;17.43;;;15.73;;
20000;SDS011;10161;41.188;-8.642;2022-12-07T08:46:16;17.87;;;15.43;;
20000;SDS011;10161;41.188;-8.642;2022-12-07T08:48:46;16.03;;;14.30;;
20000;SDS011;10161;41.188;-8.642;2022-12-07T08:51:16;14.33;;;12.80;;
20000;SDS011;10161;41.188;-8.642;2022-12-07T08:53:43;21.33;;;19.13;;
20000;SDS011;10161;41.188;-8.642;2022-12-07T08:56:10;19.47;;;17.47;;
20000;SDS011;10161;41.188;-8.642;2022-12-07T08:58:37;17.60;;;15.80;;
20000;SDS011;10161;41.188;-8.642;2022-12-07T09:01:06;15.00;;;13.60;;
20000;SDS011;10161;41.188;-8.642;2022-12-07T09:03:33;14.33;;;12.87;;
20000;SDS011;10161;41.188;-8.642;2022-12-07T09:06:00;15.40;;;13.13;;
20000;SDS011;10161;41.188;-8.642;2022-12-07T09:08:28;15.63;;;14.10;;
20000;SDS011;10161;41.188;-8.642;2022-12-07T09:10:57;15.53;;;13.93;;
20000;SDS011;10161;41.188;-8.642;2022-12-07T09:13:24;17.33;;;13.50;;
20000;SDS011;10161;41.188;-8.642;2022-12-07T09:15:51;14.00;;;12.47;;
20000;SDS011;10161;41.188;-8.642;2022-12-07T09:18:19;13.50;;;12.03;;
20000;SDS011;10161;41.188;-8.642;2022-12-07T09:20:46;13.00;;;11.70;;
20000;SDS011;10161;41.188;-8.642;2022-12-07T09:23:13;17.50;;;14.30;;
20000;SDS011;10161;41.188;-8.642;2022-12-07T09:25:40;13.97;;;12.43;;
20000;SDS011;10161;41.188;-8.642;2022-12-07T09:28:07;12.40;;;11.10;;
20000;SDS011;10161;41.188;-8.642;2022-12-07T09:30:35;20.50;;;11.90;;
20000;SDS011;10161;41.188;-8.642;2022-12-07T09:33:02;11.50;;;10.40;;
20000;SDS011;10161;41.188;-8.642;2022-12-07T09:35:30;11.30;;;10.20;;
20000;SDS011;10161;41.188;-8.642;2022-12-07T09:37:57;10.23;;;9.17;;
20000;SDS011;10161;41.188;-8.642;2022-12-07T09:40:24;9.07;;;8.17;;
20000;SDS011;10161;41.188;-8.642;2022-12-07T09:42:52;10.13;;;8.90;;
20000;SDS011;10161;41.188;-8.642;2022-12-07T09:45:21;9.60;;;8.60;;
20000;SDS011;10161;41.188;-8.642;2022-12-07T09:47:50;10.50;;;9.50;;
20000;SDS011;10161;41.188;-8.642;2022-12-07T09:50:18;10.17;;;7.90;;
20000;SDS011;10161;41.188;-8.642;2022-12-07T09:52:48;8.83;;;7.23;;
20000;SDS011;10161;41.188;-8.642;2022-12-07T09:55:16;8.23;;;7.40;;
20000;SDS011;10161;41.188;-8.642;2022-12-07T09:57:46;9.47;;;8.47;;
20000;SDS011;10161;41.188;-8.642;2022-12-07T10:00:14;11.27;;;9.60;;
20000;SDS011;10161;41.188;-8.642;2022-12-07T10:02:43;10.77;;;9.47;;
20000;SDS011;10161;41.188;-8.642;2022-12-07T10:05:12;11.23;;;10.13;;
20000;SDS011;10161;41.188;-8.642;2022-12-07T10:07:40;13.13;;;11.27;;
20000;SDS011;10161;41.188;-8.642;2022-12-07T10:10:12;12.40;;;11.20;;
20000;SDS011;10161;41.188;-8.642;2022-12-07T10:12:57;11.23;;;10.03;;
20000;SDS011;10161;41.188;-8.642;2022-12-07T10:15:42;12.13;;;10.73;;
20000;SDS011;10161;41.188;-8.642;2022-12-07T10:18:17;11.90;;;10.07;;
20000;SDS011;10161;41.188;-8.642;2022-12-07T10:20:46;10.73;;;9.70;;
20000;SDS011;10161;41.188;-8.642;2022-12-07T10:23:14;11.73;;;10.57;;
20000;SDS011;10161;41.188;-8.642;2022-12-07T10:25:43;15.47;;;10.53;;
20000;SDS011;10161;41.188;-8.642;2022-12-07T10:28:13;12.43;;;11.13;;
20000;SDS011;10161;41.188;-8.642;2022-12-07T10:30:52;16.07;;;11.70;;
20000;SDS011;10161;41.188;-8.642;2022-12-07T10:33:28;22.90;;;11.57;;
20000;SDS011;10161;41.188;-8.642;2022-12-07T10:35:56;12.83;;;10.80;;
20000;SDS011;10161;41.188;-8.642;2022-12-07T10:38:24;13.63;;;9.17;;
20000;SDS011;10161;41.188;-8.642;2022-12-07T10:41:04;11.47;;;9.60;;
20000;SDS011;10161;41.188;-8.642;2022-12-07T10:43:31;8.73;;;7.83;;
20000;SDS011;10161;41.188;-8.642;2022-12-07T10:49:08;6.70;;;6.03;;
20000;SDS011;10161;41.188;-8.642;2022-12-07T10:51:56;8.00;;;5.60;;
20000;SDS011;10161;41.188;-8.642;2022-12-07T10:54:28;8.03;;;6.10;;
20000;SDS011;10161;41.188;-8.642;2022-12-07T10:57:05;6.60;;;5.67;;
20000;SDS011;10161;41.188;-8.642;2022-12-07T10:59:50;7.73;;;6.30;;
20000;SDS011;10161;41.188;-8.642;2022-12-07T11:02:26;5.30;;;4.80;;
20000;SDS011;10161;41.188;-8.642;2022-12-07T11:05:06;5.70;;;5.20;;
20000;SDS011;10161;41.188;-8.642;2022-12-07T11:07:39;5.57;;;4.77;;
20000;SDS011;10161;41.188;-8.642;2022-12-07T11:10:13;7.20;;;5.97;;
20000;SDS011;10161;41.188;-8.642;2022-12-07T11:12:47;6.03;;;5.10;;
20000;SDS011;10161;41.188;-8.642;2022-12-07T11:15:26;5.30;;;4.80;;
20000;SDS011;10161;41.188;-8.642;2022-12-07T11:17:56;5.40;;;4.90;;
20000;SDS011;10161;41.188;-8.642;2022-12-07T11:20:35;5.40;;;5.00;;
20000;SDS011;10161;41.188;-8.642;2022-12-07T11:23:11;6.07;;;5.30;;
20000;SDS011;10161;41.188;-8.642;2022-12-07T11:25:46;6.13;;;5.53;;
20000;SDS011;10161;41.188;-8.642;2022-12-07T11:28:20;6.40;;;5.00;;
20000;SDS011;10161;41.188;-8.642;2022-12-07T11:30:57;6.43;;;4.93;;
20000;SDS011;10161;41.188;-8.642;2022-12-07T11:33:29;6.37;;;5.00;;
20000;SDS011;10161;41.188;-8.642;2022-12-07T11:36:05;7.03;;;5.70;;
20000;SDS011;10161;41.188;-8.642;2022-12-07T11:38:38;5.50;;;4.67;;
20000;SDS011;10161;41.188;-8.642;2022-12-07T11:41:08;6.83;;;4.93;;
20000;SDS011;10161;41.188;-8.642;2022-12-07T11:43:53;7.50;;;5.30;;
20000;SDS011;10161;41.188;-8.642;2022-12-07T11:46:22;7.50;;;5.23;;
20000;SDS011;10161;41.188;-8.642;2022-12-07T11:48:53;6.53;;;5.10;;
20000;SDS011;10161;41.188;-8.642;2022-12-07T11:51:24;5.50;;;5.00;;
20000;SDS011;10161;41.188;-8.642;2022-12-07T11:53:53;8.83;;;5.40;;
20000;SDS011;10161;41.188;-8.642;2022-12-07T11:56:23;5.70;;;4.37;;
20000;SDS011;10161;41.188;-8.642;2022-12-07T11:58:55;7.10;;;5.43;;
20000;SDS011;10161;41.188;-8.642;2022-12-07T12:01:26;4.70;;;4.30;;
20000;SDS011;10161;41.188;-8.642;2022-12-07T12:04:01;6.87;;;4.70;;
20000;SDS011;10161;41.188;-8.642;2022-12-07T12:06:31;7.40;;;5.80;;
20000;SDS011;10161;41.188;-8.642;2022-12-07T12:09:01;6.27;;;5.67;;
20000;SDS011;10161;41.188;-8.642;2022-12-07T12:11:35;5.77;;;5.27;;
20000;SDS011;10161;41.188;-8.642;2022-12-07T12:14:14;6.33;;;5.43;;
20000;SDS011;10161;41.188;-8.642;2022-12-07T12:16:55;5.33;;;4.83;;
20000;SDS011;10161;41.188;-8.642;2022-12-07T12:19:34;6.70;;;5.40;;
20000;SDS011;10161;41.188;-8.642;2022-12-07T12:22:04;5.70;;;5.13;;
20000;SDS011;10161;41.188;-8.642;2022-12-07T12:24:36;5.93;;;5.30;;
20000;SDS011;10161;41.188;-8.642;2022-12-07T12:27:05;4.60;;;4.20;;
20000;SDS011;10161;41.188;-8.642;2022-12-07T12:29:36;6.03;;;5.33;;
20000;SDS011;10161;41.188;-8.642;2022-12-07T12:32:06;5.27;;;4.80;;
20000;SDS011;10161;41.188;-8.642;2022-12-07T12:34:40;5.60;;;4.90;;
20000;SDS011;10161;41.188;-8.642;2022-12-07T12:55:13;5.17;;;4.67;;
20000;SDS011;10161;41.188;-8.642;2022-12-07T12:57:45;4.97;;;4.47;;
20000;SDS011;10161;41.188;-8.642;2022-12-07T13:00:15;6.10;;;4.73;;
20000;SDS011;10161;41.188;-8.642;2022-12-07T13:02:47;5.70;;;4.50;;
20000;SDS011;10161;41.188;-8.642;2022-12-07T13:05:18;10.60;;;9.50;;
20000;SDS011;10161;41.188;-8.642;2022-12-07T13:07:49;8.37;;;7.43;;
20000;SDS011;10161;41.188;-8.642;2022-12-07T13:10:24;5.67;;;5.17;;
20000;SDS011;10161;41.188;-8.642;2022-12-07T13:12:56;4.63;;;4.10;;
20000;SDS011;10161;41.188;-8.642;2022-12-07T13:15:34;4.87;;;4.40;;
20000;SDS011;10161;41.188;-8.642;2022-12-07T13:18:04;4.70;;;4.20;;
20000;SDS011;10161;41.188;-8.642;2022-12-07T13:20:48;4.37;;;3.97;;
20000;SDS011;10161;41.188;-8.642;2022-12-07T13:23:23;4.40;;;4.00;;
20000;SDS011;10161;41.188;-8.642;2022-12-07T13:25:56;4.47;;;4.07;;
20000;SDS011;10161;41.188;-8.642;2022-12-07T13:28:31;4.97;;;4.47;;
20000;SDS011;10161;41.188;-8.642;2022-12-07T13:31:03;4.40;;;4.00;;
20000;SDS011;10161;41.188;-8.642;2022-12-07T13:33:36;4.60;;;3.80;;
20000;SDS011;10161;41.188;-8.642;2022-12-07T13:36:04;4.70;;;4.30;;
20000;SDS011;10161;41.188;-8.642;2022-12-07T13:38:39;4.87;;;3.43;;
20000;SDS011;10161;41.188;-8.642;2022-12-07T13:41:16;3.57;;;3.27;;
20000;SDS011;10161;41.188;-8.642;2022-12-07T13:43:44;3.00;;;2.70;;
20000;SDS011;10161;41.188;-8.642;2022-12-07T13:46:12;3.67;;;3.37;;
20000;SDS011;10161;41.188;-8.642;2022-12-07T13:48:43;4.20;;;3.43;;
20000;SDS011;10161;41.188;-8.642;2022-12-07T13:51:18;3.33;;;3.03;;
20000;SDS011;10161;41.188;-8.642;2022-12-07T13:53:47;3.80;;;3.00;;
20000;SDS011;10161;41.188;-8.642;2022-12-07T13:56:14;3.80;;;3.30;;
20000;SDS011;10161;41.188;-8.642;2022-12-07T13:58:41;5.90;;;2.93;;
20000;SDS011;10161;41.188;-8.642;2022-12-07T14:01:09;3.40;;;3.10;;
20000;SDS011;10161;41.188;-8.642;2022-12-07T14:03:36;2.97;;;2.73;;
20000;SDS011;10161;41.188;-8.642;2022-12-07T14:06:04;3.50;;;3.20;;
20000;SDS011;10161;41.188;-8.642;2022-12-07T14:08:35;5.80;;;5.20;;
20000;SDS011;10161;41.188;-8.642;2022-12-07T14:11:01;3.97;;;3.67;;
20000;SDS011;10161;41.188;-8.642;2022-12-07T14:13:30;3.37;;;2.90;;
20000;SDS011;10161;41.188;-8.642;2022-12-07T14:15:59;3.07;;;2.80;;
20000;SDS011;10161;41.188;-8.642;2022-12-07T14:18:26;3.43;;;3.13;;
20000;SDS011;10161;41.188;-8.642;2022-12-07T14:21:04;3.87;;;3.53;;
20000;SDS011;10161;41.188;-8.642;2022-12-07T14:23:32;3.30;;;3.00;;
20000;SDS011;10161;41.188;-8.642;2022-12-07T14:26:09;3.40;;;3.10;;
20000;SDS011;10161;41.188;-8.642;2022-12-07T14:28:38;3.67;;;2.87;;
20000;SDS011;10161;41.188;-8.642;2022-12-07T14:31:08;3.80;;;2.90;;
20000;SDS011;10161;41.188;-8.642;2022-12-07T14:33:37;3.40;;;3.10;;
20000;SDS011;10161;41.188;-8.642;2022-12-07T14:36:05;6.80;;;3.40;;
20000;SDS011;10161;41.188;-8.642;2022-12-07T14:38:32;2.83;;;2.63;;
20000;SDS011;10161;41.188;-8.642;2022-12-07T14:40:59;2.93;;;2.73;;
20000;SDS011;10161;41.188;-8.642;2022-12-07T14:43:41;4.90;;;3.80;;
20000;SDS011;10161;41.188;-8.642;2022-12-07T14:46:08;3.47;;;2.90;;
20000;SDS011;10161;41.188;-8.642;2022-12-07T14:48:35;3.23;;;2.93;;
20000;SDS011;10161;41.188;-8.642;2022-12-07T14:51:03;3.10;;;2.80;;